LTFM Airport Information

Runway Information
Airport Frequencies
Airport Navaids
Airport Weather Information & NOTAM
ADDS - METARS form results

(0314 UTC 22 November 2019)
Data provider http://aviationweather.gov/metar/data/
 
METAR text: LTFM 220250Z 06017KT 9999 SCT015 BKN027 14/10 Q1018 NOSIG RMK RWY17L 07017KT RWY34L 05013KT RWY16R 06018KT
Conditions at: LTFM (ISTANBUL HANALI , TR) observed 0250 UTC 22 November 2019
Temperature: 14.0°C (57°F)
Dewpoint: 10.0°C (50°F) [RH = 77%]
Pressure (altimeter): 30.06 inches Hg (1018.0 mb)
Winds: from the ENE (60 degrees) at 20 MPH (17 knots; 8.7 m/s)
Visibility: 6 or more miles (10+ km)
Ceiling: 2700 feet AGL
Clouds: scattered clouds at 1500 feet AGL
broken clouds at 2700 feet AGL
Weather: no significant weather observed at this time

METAR text: LTFM 220220Z 07016KT 9999 SCT015 BKN027 14/10 Q1018 NOSIG RMK RWY17L 06018KT RWY34L 04013KT RWY16R 06018KT
Conditions at: LTFM (ISTANBUL HANALI , TR) observed 0220 UTC 22 November 2019
Temperature: 14.0°C (57°F)
Dewpoint: 10.0°C (50°F) [RH = 77%]
Pressure (altimeter): 30.06 inches Hg (1018.0 mb)
Winds: from the ENE (70 degrees) at 18 MPH (16 knots; 8.2 m/s)
Visibility: 6 or more miles (10+ km)
Ceiling: 2700 feet AGL
Clouds: scattered clouds at 1500 feet AGL
broken clouds at 2700 feet AGL
Weather: no significant weather observed at this time

Forecast for: LTFM (ISTANBUL HANALI , TR)
Text: TAF LTFM 212240Z 2200/2306 06022KT 9999 SCT012 BKN025
Forecast period: 0000 to 1500 UTC 22 November 2019
Forecast type: FROM: standard forecast or significant change
Winds: from the ENE (60 degrees) at 25 MPH (22 knots; 11.3 m/s)
Visibility: 6 or more miles 10+ km)
Ceiling: 2500 feet AGL
Clouds: scattered clouds at 1200 feet AGL
broken clouds at 2500 feet AGL
Weather: no significant weather forecast for this period
Text: PROB40
Forecast period: 0900 to 1300 UTC 22 November 2019
Forecast type: TEMPORARY: The following changes expected for less than half the time period
Visibility: missing
Ceiling: unknown
Clouds: missing
Weather: -SHRA  (light rain showers)
Text: TEMPO 2209/2213 -SHRA
Forecast period: 1500 UTC 22 November 2019 to 0600 UTC 23 November 2019
Forecast type: BECOMING: Conditions expected to become as follows by 1800 UTC 22 November 2019
Winds: from the ENE (70 degrees) at 14 MPH (12 knots; 6.2 m/s)
Visibility: 6 or more miles 10+ km)
Ceiling: 10000 feet AGL
Clouds: scattered clouds at 2700 feet AGL
broken clouds at 10000 feet AGL
Weather: no significant weather forecast for this period
Text: BECMG 2215/2218 07012KT SCT027 BKN100
Forecast period: 2000 UTC 22 November 2019 to 0000 UTC 23 November 2019
Forecast type: TEMPORARY: The following changes expected for less than half the time period
Visibility: missing
Ceiling: 2500 feet AGL
Clouds: broken clouds at 2500 feet AGL
broken clouds at 8000 feet AGL
Weather: -SHRA  (light rain showers)